Airfield :
LOGIN :

Register | Disclaimer

   EN    FR    IT 

 










Legend :    VFR   Marginal VFR   IFR   Intensive IFR   Very Intensive IFR
Visi :
Ceiling :
>= 8 km
>= 3000ft
5 to 8 km
1000 to 3000 ft
1500m to 5 km
500 to 1000 ft
800 to 1500m
200 to 500 ft
< 800m
< 200 ft
Symbols :   Thunderstorms  Fog  Heavy snow  Heavy precipitations  Wind > 20 kt
SIGMETs :     Misc.  Thunderstorms  Icing  Turbulence  Mountain Waves  Volcanic Ashes







- Airport Elevation : 502 ft
- IATA code : ORK


EICK - Cork

CURRENT METAR :
  • 202000Z 24007KT 9999 FEW028 BKN050 16/12 Q1014 NOSIG

EXPIRED METARs :
  • 201930Z 25008KT 9999 FEW028 BKN050 16/12 Q1013 NOSIG
  • 201900Z 25009KT 9999 FEW028 17/12 Q1013 NOSIG
  • 201830Z 25011KT 9999 SCT028 SCT060 18/11 Q1013 NOSIG
  • 201800Z 24011KT 9999 BKN028 BKN050 18/12 Q1012 NOSIG
  • 201730Z 24010KT 9999 BKN028 BKN050 17/12 Q1012 NOSIG
  • 201700Z 25010KT 9999 BKN030 BKN050 18/11 Q1012 NOSIG

TAF TAF EICK
Valid from the 20 at 18:00 until the 21 at 18:00 UTC


201700Z 2018/2118 26010KT 9999 FEW018 BKN030
BECMG 2021/2024 23008KT
BECMG 2101/2104 19005KT
PROB30
TEMPO 2101/2105 4000 BR
BECMG 2105/2107 19011KT
BECMG 2107/2109 20015G25KT -RA BKN010
TEMPO 2110/2118 20018G30KT
BECMG 2111/2113 5000 -RA BKN007
BECMG 2113/2115 2500 BKN004
PROB30
TEMPO 2113/2115 RA
TEMPO 2115/2118 0500 FG BKN002
No reported NOTAMs for that airfield.



MET'MAP, your aeronautical weather chart ! - Copyright ORBIFLY December 2007 - Disclaimer

ORBIFLY MET'MAP TEAM :

Programming & Development : Alexandra Zaïnal
Concept & Development : Baudouin d'Aumeries
Co-Development & Prog : Marc-Olivier Méhu
Technical & hardware support : Manuel Goepfert

Contact : metmap@orbifly.com




SOURCES & CREDITS :

   NOAA